Time;durP1;ratioP1;P1;durP2;ratioP2;P2;SDS_P1;SDS_P2;PMS_P1;PMS_P2;Temp;Humidity;BMP_temperature;BMP_pressure;BME280_temperature;BME280_humidity;BME280_pressure;Samples;Min_cycle;Max_cycle;Signal;HPM_P1;HPM_P2
2023/11/07 00:01:39;;;;;;;7.72;3.60;;;;;;;9.33;78.56;99692.84;1750980;82;25378;-67
2023/11/07 00:04:10;;;;;;;8.95;3.90;;;;;;;9.30;78.50;99690.77;1750831;82;26180;-66
2023/11/07 00:06:40;;;;;;;8.58;3.52;;;;;;;9.26;78.42;99695.22;1750798;82;25641;-67
2023/11/07 00:09:09;;;;;;;8.75;3.95;;;;;;;9.20;78.46;99699.16;1750882;82;25578;-67
2023/11/07 00:11:37;;;;;;;8.05;4.10;;;;;;;9.16;78.61;99702.27;1750938;82;25700;-67
2023/11/07 00:14:06;;;;;;;141.85;101.85;;;;;;;9.10;78.72;99708.33;1751200;81;25625;-66
2023/11/07 00:16:33;;;;;;;41.10;28.00;;;;;;;9.05;79.00;99703.64;1723497;82;27344;-67
2023/11/07 00:18:59;;;;;;;15.78;8.98;;;;;;;9.05;79.15;99709.83;1750857;82;25559;-64
2023/11/07 00:21:26;;;;;;;41.30;25.48;;;;;;;9.05;79.17;99713.88;1750902;82;25431;-70
2023/11/07 00:23:52;;;;;;;9.83;6.03;;;;;;;9.04;79.23;99720.92;1750989;82;25531;-66
2023/11/07 00:26:20;;;;;;;10.75;4.30;;;;;;;9.02;79.27;99721.80;1750973;82;25403;-67
2023/11/07 00:28:46;;;;;;;6.83;3.75;;;;;;;8.96;79.06;99721.16;1750881;81;27326;-66
2023/11/07 00:31:14;;;;;;;7.60;4.80;;;;;;;8.90;78.91;99727.78;1750764;82;25796;-66
2023/11/07 00:33:40;;;;;;;13.80;4.75;;;;;;;8.85;79.04;99731.41;1750857;82;25535;-66
2023/11/07 00:36:10;;;;;;;10.15;3.98;;;;;;;8.75;78.98;99737.88;1748139;81;27618;-66
2023/11/07 00:38:36;;;;;;;10.88;4.28;;;;;;;8.66;79.31;99734.89;1745344;82;25651;-66
2023/11/07 00:41:05;;;;;;;8.55;4.65;;;;;;;8.56;79.51;99738.11;1745303;82;27377;-66
2023/11/07 00:43:31;;;;;;;7.83;4.40;;;;;;;8.47;79.99;99736.45;1745210;82;25573;-67
2023/11/07 00:45:57;;;;;;;10.23;4.58;;;;;;;8.38;79.99;99737.73;1745276;82;25433;-66
2023/11/07 00:48:23;;;;;;;12.98;4.70;;;;;;;8.31;80.26;99739.50;1745254;81;25529;-67
2023/11/07 00:50:49;;;;;;;11.85;4.85;;;;;;;8.25;80.49;99745.32;1745336;82;25209;-67
2023/11/07 00:53:16;;;;;;;11.57;4.70;;;;;;;8.18;80.70;99739.80;1745219;82;28132;-67
2023/11/07 00:55:42;;;;;;;12.55;5.12;;;;;;;8.09;81.15;99738.95;1745185;82;25371;-67
2023/11/07 00:58:08;;;;;;;10.38;5.35;;;;;;;8.02;81.19;99742.63;1745212;82;25604;-67
2023/11/07 01:00:36;;;;;;;13.78;5.28;;;;;;;7.93;81.57;99741.19;1745212;82;25623;-66
2023/11/07 01:03:03;;;;;;;13.38;5.65;;;;;;;7.86;81.76;99742.16;1745266;82;25380;-67
2023/11/07 01:05:30;;;;;;;12.63;5.00;;;;;;;7.79;82.66;99749.30;1745125;82;27664;-67
2023/11/07 01:07:56;;;;;;;12.28;5.80;;;;;;;7.67;82.62;99735.02;1743735;82;27231;-69
2023/11/07 01:10:22;;;;;;;13.25;5.45;;;;;;;7.66;82.91;99749.60;1743829;81;25737;-68
2023/11/07 01:12:48;;;;;;;13.43;5.58;;;;;;;7.61;83.41;99751.06;1744180;81;25824;-69
2023/11/07 01:15:15;;;;;;;13.85;5.95;;;;;;;7.56;83.48;99740.93;1744618;82;25733;-69
2023/11/07 01:17:41;;;;;;;11.68;5.95;;;;;;;7.50;83.49;99748.33;1715377;82;27397;-69
2023/11/07 01:20:10;;;;;;;11.43;5.25;;;;;;;7.46;83.69;99741.41;1714556;82;25792;-69
2023/11/07 01:22:37;;;;;;;12.93;6.00;;;;;;;7.43;83.68;99748.73;1716313;82;25744;-68
2023/11/07 01:25:06;;;;;;;10.13;5.85;;;;;;;7.39;84.22;99749.63;1745353;82;25450;-68
2023/11/07 01:27:33;;;;;;;12.47;5.40;;;;;;;7.33;84.02;99746.25;1745567;82;25466;-69
2023/11/07 01:29:59;;;;;;;13.43;5.20;;;;;;;7.29;84.30;99747.95;1745490;82;27340;-69
2023/11/07 01:32:26;;;;;;;10.00;5.40;;;;;;;7.26;84.46;99752.03;1745305;82;25691;-69
2023/11/07 01:34:52;;;;;;;15.30;5.58;;;;;;;7.23;84.66;99754.53;1745409;81;25427;-69
2023/11/07 01:37:19;;;;;;;11.35;6.05;;;;;;;7.19;85.03;99750.30;1749943;82;25409;-69
2023/11/07 01:39:45;;;;;;;12.23;4.83;;;;;;;7.15;84.85;99749.31;1750998;81;25402;-69
2023/11/07 01:42:12;;;;;;;12.20;5.70;;;;;;;7.11;85.13;99748.30;1750987;82;27371;-68
2023/11/07 01:44:51;;;;;;;10.40;5.12;;;;;;;7.07;85.36;99748.10;1750849;82;27099;-68
2023/11/07 01:47:25;;;;;;;11.40;6.00;;;;;;;7.05;85.42;99745.48;1751011;82;25623;-68
2023/11/07 01:49:53;;;;;;;12.50;5.10;;;;;;;7.02;85.68;99746.06;1750971;82;25519;-68
2023/11/07 01:52:20;;;;;;;15.50;5.92;;;;;;;6.98;85.70;99747.74;1750910;82;25465;-67
2023/11/07 01:54:51;;;;;;;13.22;5.70;;;;;;;6.95;85.79;99745.12;1723464;82;27417;-66
2023/11/07 01:57:19;;;;;;;13.62;5.30;;;;;;;6.93;85.88;99741.93;1750910;82;25579;-66
2023/11/07 01:59:48;;;;;;;10.93;5.30;;;;;;;6.89;85.65;99739.02;1750979;82;25580;-67
2023/11/07 02:02:18;;;;;;;12.37;5.53;;;;;;;6.86;86.04;99749.05;1751071;82;25860;-67
2023/11/07 02:04:47;;;;;;;13.72;5.35;;;;;;;6.83;86.10;99744.25;1751089;82;25614;-67
2023/11/07 02:07:15;;;;;;;13.32;5.87;;;;;;;6.82;86.18;99743.20;1750948;82;27869;-66
2023/11/07 02:09:42;;;;;;;14.10;5.90;;;;;;;6.79;86.06;99759.92;1750867;82;25588;-66
2023/11/07 02:12:10;;;;;;;13.75;5.67;;;;;;;6.74;86.12;99756.77;1750877;82;25544;-67
2023/11/07 02:14:36;;;;;;;12.18;5.33;;;;;;;6.70;86.39;99756.56;1750926;82;25556;-66
2023/11/07 02:17:05;;;;;;;10.15;5.05;;;;;;;6.66;86.40;99748.06;1750970;81;25551;-66
2023/11/07 02:19:32;;;;;;;12.63;6.17;;;;;;;6.63;86.49;99747.31;1750944;82;27348;-67
2023/11/07 02:22:01;;;;;;;13.10;5.65;;;;;;;6.60;86.52;99750.58;1750834;82;25769;-67
2023/11/07 02:24:29;;;;;;;14.68;6.17;;;;;;;6.57;86.65;99748.48;1750927;82;25603;-67
2023/11/07 02:26:58;;;;;;;14.03;6.80;;;;;;;6.54;86.82;99748.54;1750862;82;25632;-68
2023/11/07 02:29:25;;;;;;;13.32;5.35;;;;;;;6.51;86.83;99759.31;1750902;82;25478;-68
2023/11/07 02:31:51;;;;;;;13.40;5.42;;;;;;;6.49;86.95;99753.45;1750898;82;27199;-68
2023/11/07 02:34:18;;;;;;;9.60;5.62;;;;;;;6.45;86.87;99756.48;1750800;81;27247;-68
2023/11/07 02:36:45;;;;;;;11.15;5.30;;;;;;;6.41;87.30;99763.52;1748317;82;25426;-68
2023/11/07 02:39:12;;;;;;;9.68;4.97;;;;;;;6.38;87.39;99754.70;1745335;82;26059;-68
2023/11/07 02:41:42;;;;;;;8.43;5.40;;;;;;;6.35;87.23;99754.75;1745361;82;25414;-67
2023/11/07 02:44:10;;;;;;;11.50;5.22;;;;;;;6.32;87.17;99753.98;1745447;82;27313;-68
2023/11/07 02:46:37;;;;;;;11.30;5.33;;;;;;;6.29;87.28;99759.94;1745217;82;27134;-68
2023/11/07 02:49:05;;;;;;;14.10;5.40;;;;;;;6.27;87.32;99753.28;1745309;81;25664;-67
2023/11/07 02:51:33;;;;;;;16.97;5.05;;;;;;;6.24;87.62;99751.17;1745296;82;25783;-67
2023/11/07 02:53:59;;;;;;;10.60;5.42;;;;;;;6.20;87.79;99750.97;1745290;81;25418;-66
2023/11/07 02:56:27;;;;;;;12.45;5.35;;;;;;;6.19;87.74;99757.42;1715993;82;27958;-66
2023/11/07 02:58:56;;;;;;;9.38;4.92;;;;;;;6.15;87.83;99753.18;1745224;82;25406;-67
2023/11/07 03:01:23;;;;;;;15.48;5.80;;;;;;;6.14;88.34;99756.94;1745311;82;25589;-67
2023/11/07 03:03:50;;;;;;;9.58;4.75;;;;;;;6.11;87.99;99751.36;1745253;82;25489;-68
2023/11/07 03:06:18;;;;;;;19.07;5.70;;;;;;;6.09;88.23;99749.52;1745379;82;25466;-67
2023/11/07 03:08:45;;;;;;;13.58;4.85;;;;;;;6.07;87.99;99758.42;1745322;82;27455;-67
2023/11/07 03:11:11;;;;;;;11.43;5.20;;;;;;;6.06;88.14;99758.15;1745250;82;25716;-68
2023/11/07 03:13:38;;;;;;;10.30;5.40;;;;;;;6.04;88.28;99759.78;1745286;82;25391;-67
2023/11/07 03:16:09;;;;;;;16.82;5.55;;;;;;;6.04;88.37;99762.47;1715629;82;25611;-67
2023/11/07 03:18:35;;;;;;;10.35;5.25;;;;;;;6.03;88.32;99766.26;1712206;82;25656;-68
2023/11/07 03:21:08;;;;;;;10.53;5.12;;;;;;;6.03;88.43;99766.78;1745366;82;27353;-68
2023/11/07 03:23:35;;;;;;;10.85;5.20;;;;;;;6.03;88.48;99765.44;1745266;82;25483;-68
2023/11/07 03:26:04;;;;;;;11.28;5.58;;;;;;;5.99;88.45;99781.34;1745330;82;25489;-68
2023/11/07 03:28:32;;;;;;;9.33;5.30;;;;;;;5.98;88.54;99774.39;1741290;82;26088;-68
2023/11/07 03:30:58;;;;;;;12.10;5.17;;;;;;;5.98;88.63;99773.83;1745936;81;25227;-68
2023/11/07 03:33:25;;;;;;;8.03;4.90;;;;;;;5.99;88.77;99774.63;1746066;82;27334;-67
2023/11/07 03:35:51;;;;;;;10.08;5.75;;;;;;;6.00;88.72;99777.58;1745749;82;25586;-67
2023/11/07 03:38:19;;;;;;;11.68;5.47;;;;;;;6.01;88.93;99778.36;1750646;82;25762;-66
2023/11/07 03:40:46;;;;;;;10.95;5.22;;;;;;;6.02;88.93;99778.63;1750818;82;27521;-67
2023/11/07 03:43:13;;;;;;;12.60;5.40;;;;;;;6.03;88.91;99786.39;1750923;82;25559;-66
2023/11/07 03:45:39;;;;;;;9.45;5.05;;;;;;;6.05;88.90;99780.73;1723069;82;28114;-69
2023/11/07 03:48:05;;;;;;;10.80;5.17;;;;;;;6.06;88.89;99775.08;1751054;82;25376;-67
2023/11/07 03:50:31;;;;;;;8.33;5.35;;;;;;;6.08;88.85;99772.89;1723491;82;25636;-68
2023/11/07 03:52:58;;;;;;;8.43;5.25;;;;;;;6.09;88.74;99772.34;1750899;81;25928;-67
2023/11/07 03:55:24;;;;;;;10.65;5.25;;;;;;;6.11;88.77;99775.00;1751031;82;25656;-68
2023/11/07 03:57:50;;;;;;;15.38;5.53;;;;;;;6.11;88.67;99772.84;1723194;82;27462;-68
2023/11/07 04:00:19;;;;;;;10.28;5.25;;;;;;;6.11;88.60;99770.16;1750789;82;27344;-68
2023/11/07 04:02:46;;;;;;;9.53;5.87;;;;;;;6.11;88.60;99769.63;1751031;82;25774;-68
2023/11/07 04:05:13;;;;;;;11.12;5.28;;;;;;;6.11;88.48;99770.97;1750843;82;26130;-67
2023/11/07 04:07:39;;;;;;;10.00;5.55;;;;;;;6.12;88.46;99775.80;1750876;81;25416;-67
2023/11/07 04:10:09;;;;;;;11.53;5.40;;;;;;;6.12;88.33;99777.13;1750888;82;27371;-68
2023/11/07 04:12:36;;;;;;;9.20;5.70;;;;;;;6.12;88.38;99783.30;1750847;82;25574;-69
2023/11/07 04:15:08;;;;;;;13.25;6.20;;;;;;;6.11;88.37;99779.03;1750934;82;25416;-69
2023/11/07 04:17:33;;;;;;;12.60;5.92;;;;;;;6.11;88.40;99779.03;1724063;82;26381;-67
2023/11/07 04:20:00;;;;;;;12.95;6.10;;;;;;;6.11;88.42;99770.16;1750902;82;25409;-67
2023/11/07 04:22:28;;;;;;;10.95;5.97;;;;;;;6.12;88.57;99769.08;1750858;82;27354;-68
2023/11/07 04:24:54;;;;;;;12.03;6.30;;;;;;;6.14;88.62;99770.92;1750809;82;25742;-67
2023/11/07 04:27:22;;;;;;;12.05;5.55;;;;;;;6.15;88.63;99776.56;1750897;82;25388;-68
2023/11/07 04:29:48;;;;;;;13.00;6.78;;;;;;;6.18;88.67;99777.33;1750834;81;25606;-68
2023/11/07 04:32:16;;;;;;;12.03;5.92;;;;;;;6.20;88.67;99772.97;1750794;82;25527;-68
2023/11/07 04:34:42;;;;;;;14.65;6.45;;;;;;;6.23;88.65;99775.08;1722946;82;27388;-68
2023/11/07 04:37:11;;;;;;;10.43;5.75;;;;;;;6.26;88.73;99782.56;1748592;81;25620;-68
2023/11/07 04:39:39;;;;;;;10.05;5.42;;;;;;;6.28;88.68;99782.53;1745411;82;34851;-68
2023/11/07 04:42:28;;;;;;;11.25;5.70;;;;;;;6.31;88.64;99777.11;1715721;82;25568;-68
2023/11/07 04:44:54;;;;;;;14.28;6.17;;;;;;;6.33;88.60;99785.66;1708994;83;25678;-67
2023/11/07 04:47:22;;;;;;;10.90;5.45;;;;;;;6.38;88.61;99798.23;1708719;84;27334;-67
2023/11/07 04:49:51;;;;;;;10.75;5.65;;;;;;;6.40;88.51;99787.98;1708714;84;25713;-66
2023/11/07 04:52:18;;;;;;;11.10;5.20;;;;;;;6.42;88.55;99798.70;1708813;84;25513;-67
2023/11/07 04:54:44;;;;;;;14.60;6.30;;;;;;;6.45;88.43;99794.09;1708628;84;25427;-66
2023/11/07 04:57:10;;;;;;;10.78;5.67;;;;;;;6.49;88.37;99796.98;1708727;84;25697;-66
2023/11/07 04:59:36;;;;;;;11.30;5.40;;;;;;;6.50;88.24;99798.05;1684605;84;27455;-67
2023/11/07 05:02:06;;;;;;;8.03;4.83;;;;;;;6.53;88.25;99797.43;1708860;84;25471;-65
2023/11/07 05:04:36;;;;;;;13.83;5.70;;;;;;;6.55;88.12;99791.77;1708907;84;25506;-67
2023/11/07 05:07:05;;;;;;;11.20;5.60;;;;;;;6.53;87.99;99792.05;1708912;84;26123;-67
2023/11/07 05:09:31;;;;;;;8.88;5.17;;;;;;;6.60;87.91;99790.34;1711658;81;25513;-67
2023/11/07 05:11:59;;;;;;;14.45;6.08;;;;;;;6.62;87.76;99792.17;1754258;81;28086;-67
2023/11/07 05:14:27;;;;;;;11.18;6.20;;;;;;;6.65;87.64;99789.46;1754199;81;25627;-67
2023/11/07 05:16:54;;;;;;;12.90;5.60;;;;;;;6.65;87.53;99778.16;1754211;81;25571;-66
2023/11/07 05:19:22;;;;;;;11.57;5.80;;;;;;;6.66;87.39;99781.11;1754250;81;25421;-68
2023/11/07 05:21:48;;;;;;;8.95;5.37;;;;;;;6.67;87.24;99786.72;1754195;81;25433;-77
2023/11/07 05:24:15;;;;;;;10.63;5.58;;;;;;;6.68;87.20;99791.56;1754237;81;27336;-76
2023/11/07 05:26:44;;;;;;;12.70;5.50;;;;;;;6.69;87.16;99793.14;1754152;81;25619;-77
2023/11/07 05:29:16;;;;;;;13.48;5.15;;;;;;;6.69;87.07;99800.68;1754255;81;25487;-77
2023/11/07 05:31:43;;;;;;;13.38;5.58;;;;;;;6.69;86.94;99797.17;1753696;81;25539;-76
2023/11/07 05:34:10;;;;;;;12.15;5.70;;;;;;;6.69;87.01;99806.06;1754188;81;25613;-77
2023/11/07 05:36:36;;;;;;;11.57;5.28;;;;;;;6.69;86.98;99802.55;1754189;81;27299;-77
2023/11/07 05:39:03;;;;;;;8.50;4.80;;;;;;;6.70;86.93;99797.44;1725947;81;25589;-77
2023/11/07 05:41:30;;;;;;;8.90;5.25;;;;;;;6.70;86.95;99801.47;1754193;81;25598;-77
2023/11/07 05:43:57;;;;;;;11.33;5.20;;;;;;;6.70;86.95;99804.16;1754115;81;26188;-76
2023/11/07 05:46:23;;;;;;;10.90;5.15;;;;;;;6.71;86.96;99807.89;1754222;81;25442;-78
2023/11/07 05:48:52;;;;;;;10.32;5.17;;;;;;;6.72;86.90;99814.06;1754166;81;27504;-77
2023/11/07 05:51:23;;;;;;;8.05;5.10;;;;;;;6.72;86.96;99822.12;1726175;81;25593;-78
2023/11/07 05:53:50;;;;;;;9.63;4.83;;;;;;;6.73;86.94;99824.52;1755579;81;25129;-80
2023/11/07 05:56:17;;;;;;;12.45;4.97;;;;;;;6.75;86.93;99828.27;1755532;81;25766;-78
2023/11/07 05:58:43;;;;;;;11.33;4.75;;;;;;;6.76;86.87;99824.49;1754597;81;25465;-76
2023/11/07 06:01:10;;;;;;;11.53;5.55;;;;;;;6.77;86.86;99833.34;1726777;81;27214;-78
2023/11/07 06:03:36;;;;;;;13.20;5.95;;;;;;;6.79;86.90;99825.22;1754378;81;25723;-74
2023/11/07 06:06:03;;;;;;;12.15;5.05;;;;;;;6.79;86.95;99840.02;1754575;81;25402;-73
2023/11/07 06:08:38;;;;;;;9.33;5.12;;;;;;;6.81;87.02;99839.72;1754507;81;25614;-73
2023/11/07 06:11:05;;;;;;;9.00;5.05;;;;;;;6.82;87.07;99833.27;1754664;81;25406;-74
2023/11/07 06:13:31;;;;;;;11.25;5.30;;;;;;;6.84;87.09;99844.52;1754279;81;27240;-74
2023/11/07 06:15:57;;;;;;;9.18;4.97;;;;;;;6.85;87.14;99842.88;1754565;81;25363;-74
2023/11/07 06:18:30;;;;;;;10.93;5.15;;;;;;;6.87;87.18;99850.09;1754329;81;25534;-73
2023/11/07 06:20:57;;;;;;;12.00;5.12;;;;;;;6.89;87.36;99853.28;1754271;81;25611;-73
2023/11/07 06:23:26;;;;;;;11.43;5.28;;;;;;;6.92;87.43;99851.35;1754210;81;25607;-74
2023/11/07 06:25:53;;;;;;;9.05;4.92;;;;;;;6.92;87.69;99845.19;1754539;81;27329;-73
2023/11/07 06:28:22;;;;;;;17.05;5.75;;;;;;;6.95;88.09;99856.70;1754875;81;25583;-73
2023/11/07 06:30:57;;;;;;;10.43;5.20;;;;;;;6.95;88.44;99860.73;1754656;81;25454;-74
2023/11/07 06:33:23;;;;;;;14.13;5.45;;;;;;;6.95;88.63;99852.66;1754064;81;25543;-74
2023/11/07 06:35:49;;;;;;;11.43;5.65;;;;;;;6.97;88.89;99845.66;1754625;81;25606;-74
2023/11/07 06:38:18;;;;;;;10.05;5.03;;;;;;;6.94;89.21;99852.41;1754241;81;28005;-72
2023/11/07 06:40:44;;;;;;;10.53;4.95;;;;;;;6.93;89.60;99856.20;1753966;81;25876;-73
2023/11/07 06:43:15;;;;;;;9.25;4.87;;;;;;;6.97;89.92;99864.47;1754123;81;25795;-73
2023/11/07 06:45:52;;;;;;;10.30;5.50;;;;;;;6.99;90.01;99869.00;1757453;81;25735;-73
2023/11/07 06:48:18;;;;;;;10.90;4.97;;;;;;;7.00;90.01;99869.23;1757467;81;25603;-74
2023/11/07 06:50:46;;;;;;;12.18;5.17;;;;;;;7.02;90.22;99875.94;1731618;81;26778;-72
2023/11/07 06:53:15;;;;;;;11.53;4.60;;;;;;;7.05;90.32;99876.70;1757042;81;25447;-74
2023/11/07 06:55:48;;;;;;;11.95;5.55;;;;;;;7.08;90.35;99869.91;1757267;81;25646;-74
2023/11/07 06:58:19;;;;;;;11.65;5.45;;;;;;;7.10;90.50;99875.26;1753407;81;25622;-75
2023/11/07 07:00:46;;;;;;;7.45;4.78;;;;;;;7.17;90.64;99879.44;1757189;81;25580;-72
2023/11/07 07:03:12;;;;;;;16.87;5.95;;;;;;;7.20;90.70;99880.20;1757139;81;27315;-72
2023/11/07 07:05:38;;;;;;;14.68;5.35;;;;;;;7.23;90.78;99885.78;1757018;81;25847;-73
2023/11/07 07:08:07;;;;;;;10.30;5.67;;;;;;;7.29;90.96;99886.51;1757129;81;25408;-72
2023/11/07 07:10:34;;;;;;;11.55;5.05;;;;;;;7.34;90.88;99898.52;1756282;81;25542;-73
2023/11/07 07:13:02;;;;;;;10.48;5.25;;;;;;;7.38;90.86;99894.69;1757050;81;25632;-73
2023/11/07 07:15:29;;;;;;;11.05;5.05;;;;;;;7.44;90.87;99894.83;1757044;81;27997;-74
2023/11/07 07:17:55;;;;;;;10.45;4.92;;;;;;;7.50;90.92;99896.89;1756987;81;25447;-72
2023/11/07 07:20:21;;;;;;;11.03;5.78;;;;;;;7.59;91.35;99895.09;1757041;81;25405;-74
2023/11/07 07:22:47;;;;;;;10.18;5.53;;;;;;;7.73;91.38;99897.79;1757011;81;26362;-72
2023/11/07 07:25:16;;;;;;;9.98;5.35;;;;;;;8.01;92.98;99896.68;1757072;81;25444;-72
2023/11/07 07:27:47;;;;;;;8.88;5.05;;;;;;;8.27;92.29;99896.13;1756755;81;27333;-72
2023/11/07 07:30:27;;;;;;;7.10;4.50;;;;;;;8.38;91.08;99896.17;1757047;81;25539;-71
2023/11/07 07:32:56;;;;;;;8.15;4.30;;;;;;;8.55;91.19;99909.03;1757769;81;25262;-70
2023/11/07 07:35:29;;;;;;;;;;;;;;;8.90;91.59;99904.45;1760354;81;25937;-71
2023/11/07 07:37:56;;;;;;;22.00;5.70;;;;;;;9.42;93.34;99906.11;1757996;80;25199;-71
2023/11/07 07:48:49;;;;;;;6.97;4.63;;;;;;;11.35;89.75;99913.88;1786999;77;25724;-73
2023/11/07 08:15:31;;;;;;;8.33;3.60;;;;;;;14.16;76.00;99938.41;1789374;76;27202;-69
2023/11/07 08:17:58;;;;;;;8.43;3.87;;;;;;;14.51;72.54;99934.61;1792108;80;25589;-69
2023/11/07 08:20:24;;;;;;;7.62;4.05;;;;;;;14.52;72.70;99934.03;1792165;80;25443;-69
2023/11/07 08:22:53;;;;;;;7.22;4.25;;;;;;;14.86;73.01;99940.87;1792112;80;27336;-68
2023/11/07 08:25:21;;;;;;;9.43;4.10;;;;;;;15.01;71.04;99941.28;1792127;80;25412;-68
2023/11/07 08:27:51;;;;;;;10.78;3.70;;;;;;;15.08;68.56;99937.38;1768106;80;25566;-66
2023/11/07 08:30:23;;;;;;;8.23;3.22;;;;;;;15.21;69.83;99932.10;1792138;80;25835;-67
2023/11/07 08:32:51;;;;;;;6.28;2.95;;;;;;;15.46;68.90;99937.39;1792128;80;25437;-70
2023/11/07 08:35:21;;;;;;;6.17;3.50;;;;;;;15.46;67.90;99936.84;1792045;80;27292;-68
2023/11/07 08:37:54;;;;;;;7.37;3.70;;;;;;;15.68;66.67;99934.64;1792035;80;25626;-68
2023/11/07 08:40:20;;;;;;;;;;;;;;;15.58;66.61;99931.89;1793229;80;25545;-67
2023/11/07 08:42:50;;;;;;;8.50;2.98;;;;;;;15.60;65.87;99935.05;1792223;80;25701;-69
2023/11/07 08:45:19;;;;;;;4.50;2.27;;;;;;;15.80;66.05;99940.60;1792177;80;25552;-68
2023/11/07 08:47:50;;;;;;;3.93;2.37;;;;;;;16.34;67.54;99937.76;1792393;80;27897;-69
2023/11/07 08:50:18;;;;;;;3.77;2.45;;;;;;;16.66;64.37;99948.58;1792307;80;25448;-67
2023/11/07 08:52:49;;;;;;;6.12;2.87;;;;;;;16.87;63.83;99948.25;1792581;80;25470;-68
2023/11/07 08:55:14;;;;;;;4.42;2.37;;;;;;;17.17;65.29;99947.86;1791652;80;25928;-68
2023/11/07 08:57:40;;;;;;;4.58;2.10;;;;;;;17.68;64.51;99960.48;1767854;80;25656;-69
2023/11/07 09:00:12;;;;;;;5.37;2.22;;;;;;;17.65;61.40;99959.84;1792089;80;27319;-68
2023/11/07 09:02:40;;;;;;;6.37;2.40;;;;;;;17.34;61.21;99956.17;1791919;80;25457;-67
2023/11/07 09:05:08;;;;;;;2.77;2.22;;;;;;;16.94;59.22;99957.39;1792019;80;25465;-67
2023/11/07 09:07:35;;;;;;;3.12;1.70;;;;;;;16.86;58.65;99968.53;1792101;80;25626;-67
2023/11/07 09:10:03;;;;;;;3.95;2.08;;;;;;;16.51;60.34;99958.40;1792118;80;25631;-68
2023/11/07 09:12:29;;;;;;;5.85;2.22;;;;;;;16.20;58.91;99964.16;1792107;80;27321;-67
2023/11/07 09:14:55;;;;;;;3.52;1.50;;;;;;;16.13;59.07;99967.50;1792579;80;25639;-67
2023/11/07 09:17:22;;;;;;;3.72;1.65;;;;;;;16.16;62.21;99963.30;1794635;80;25391;-67
2023/11/07 09:19:48;;;;;;;4.53;1.75;;;;;;;16.51;60.40;99982.39;1794565;80;25652;-70
2023/11/07 09:22:14;;;;;;;4.50;2.05;;;;;;;16.29;58.46;99972.92;1794653;80;25580;-70
2023/11/07 09:24:40;;;;;;;4.12;1.65;;;;;;;16.08;59.03;99972.45;1794621;80;27265;-71
2023/11/07 09:27:07;;;;;;;4.35;2.35;;;;;;;16.42;59.95;99973.03;1794631;80;25784;-71
2023/11/07 09:29:35;;;;;;;3.08;1.60;;;;;;;16.74;57.61;99975.67;1767802;80;25420;-71
2023/11/07 09:32:03;;;;;;;5.53;2.30;;;;;;;16.69;56.81;99984.73;1794561;80;25626;-70
2023/11/07 09:34:30;;;;;;;2.72;2.00;;;;;;;16.94;58.00;99977.87;1794592;80;25384;-72
2023/11/07 09:37:01;;;;;;;3.90;1.87;;;;;;;17.25;57.78;99969.30;1794590;80;27315;-71
2023/11/07 09:39:27;;;;;;;7.17;1.98;;;;;;;18.00;59.91;99969.05;1794571;80;25534;-70
2023/11/07 09:41:54;;;;;;;3.83;2.35;;;;;;;18.80;58.05;99984.05;1794592;80;25450;-71
2023/11/07 09:44:20;;;;;;;3.83;2.30;;;;;;;19.14;53.85;99977.25;1794595;80;26231;-71
2023/11/07 09:46:49;;;;;;;7.42;2.30;;;;;;;19.13;53.26;99970.95;1794765;80;25537;-69
2023/11/07 09:49:15;;;;;;;3.87;2.20;;;;;;;19.25;53.29;99970.50;1795060;80;27306;-79
2023/11/07 09:51:46;;;;;;;4.60;1.95;;;;;;;19.49;51.62;99971.91;1794861;80;25616;-71
2023/11/07 09:54:16;;;;;;;4.80;2.33;;;;;;;19.29;51.89;99967.20;1794541;80;25427;-70
2023/11/07 09:56:46;;;;;;;5.05;1.92;;;;;;;18.82;51.64;99963.36;1793368;80;26285;-71
2023/11/07 09:59:38;;;;;;;9.08;2.85;;;;;;;18.72;53.02;99972.80;1793436;80;25648;-70
2023/11/07 10:02:07;;;;;;;6.15;2.10;;;;;;;18.64;51.62;99977.38;1793667;80;27276;-69
2023/11/07 10:04:39;;;;;;;3.83;1.72;;;;;;;17.92;51.72;99970.27;1793724;80;25645;-71
2023/11/07 10:07:05;;;;;;;4.72;2.60;;;;;;;17.39;51.25;99966.62;1766636;80;25772;-70
2023/11/07 10:09:31;;;;;;;4.47;2.45;;;;;;;16.95;52.58;99978.66;1766919;80;25721;-71
2023/11/07 10:11:58;;;;;;;6.62;2.58;;;;;;;16.40;53.05;99968.52;1794795;80;25454;-70
2023/11/07 10:14:26;;;;;;;3.98;2.02;;;;;;;15.93;54.05;99973.45;1768163;80;27375;-71
2023/11/07 10:16:56;;;;;;;5.85;2.10;;;;;;;15.63;54.53;99971.15;1794593;80;25569;-71
2023/11/07 10:19:25;;;;;;;8.80;2.77;;;;;;;15.25;55.45;99974.42;1794765;80;25416;-72
2023/11/07 10:21:52;;;;;;;5.33;2.10;;;;;;;14.89;56.46;99979.66;1794939;80;25649;-72
2023/11/07 10:24:20;;;;;;;3.20;2.02;;;;;;;14.67;57.33;99983.70;1794733;80;25354;-71
2023/11/07 10:26:58;;;;;;;3.83;2.02;;;;;;;14.51;58.25;99976.79;1794678;80;27494;-71
2023/11/07 10:29:26;;;;;;;4.95;2.30;;;;;;;14.43;58.84;99985.87;1794780;80;34823;-70
2023/11/07 10:32:04;;;;;;;5.65;1.85;;;;;;;14.35;59.31;99987.59;1794734;80;25604;-70
2023/11/07 10:34:31;;;;;;;5.78;2.08;;;;;;;14.24;59.18;99988.39;1794645;80;25664;-71
2023/11/07 10:37:00;;;;;;;6.42;2.17;;;;;;;14.23;59.92;99988.16;1794723;80;25606;-71
2023/11/07 10:39:30;;;;;;;4.08;2.00;;;;;;;14.26;60.45;99986.12;1794659;80;27531;-72
2023/11/07 10:41:57;;;;;;;7.40;2.10;;;;;;;14.22;60.37;99977.03;1794740;80;25648;-70
2023/11/07 10:44:28;;;;;;;10.23;2.33;;;;;;;14.16;60.51;99975.91;1794705;80;25440;-69
2023/11/07 10:46:57;;;;;;;5.00;1.92;;;;;;;14.08;60.32;99986.36;1794615;80;25672;-70
2023/11/07 10:49:25;;;;;;;3.17;2.05;;;;;;;13.93;60.44;99976.94;1794373;80;32840;-70
2023/11/07 10:51:52;;;;;;;5.00;2.27;;;;;;;13.91;61.46;99972.41;1767778;80;27224;-70
2023/11/07 10:54:20;;;;;;;5.15;2.17;;;;;;;14.06;61.29;99964.70;1794627;80;25650;-70
2023/11/07 10:56:51;;;;;;;5.17;2.10;;;;;;;14.14;61.66;99977.39;1794679;80;25552;-70
2023/11/07 10:59:22;;;;;;;5.65;2.33;;;;;;;14.19;61.34;99979.89;1794689;80;25792;-70
2023/11/07 11:01:51;;;;;;;6.65;2.50;;;;;;;14.12;61.20;99980.45;1794661;80;25539;-69
2023/11/07 11:04:22;;;;;;;3.87;2.20;;;;;;;13.97;60.70;99974.33;1794676;80;27305;-69
2023/11/07 11:07:04;;;;;;;3.83;1.60;;;;;;;13.88;60.67;99979.88;1794604;80;25390;-69
2023/11/07 11:09:34;;;;;;;6.72;2.20;;;;;;;13.86;61.41;99979.98;1794729;80;25442;-70
2023/11/07 11:12:04;;;;;;;6.42;2.20;;;;;;;13.91;61.68;99979.75;1794601;80;25606;-71
2023/11/07 11:14:30;;;;;;;2.98;1.92;;;;;;;14.56;64.47;99973.83;1768072;80;25449;-70
2023/11/07 11:17:25;;;;;;;7.17;2.25;;;;;;;15.10;61.31;99969.14;1788408;80;28037;-70
2023/11/07 11:19:57;;;;;;;2.85;1.82;;;;;;;15.65;62.31;99978.98;1786776;80;25624;-70
2023/11/07 11:22:46;;;;;;;2.77;1.70;;;;;;;15.97;59.78;99977.08;1786956;80;25585;-70
2023/11/07 11:25:59;;;;;;;5.20;1.82;;;;;;;16.18;58.15;99980.09;1787145;80;26180;-70
2023/11/07 11:28:42;;;;;;;3.35;1.77;;;;;;;15.76;57.10;99978.69;1722579;82;25660;-70
2023/11/07 11:31:21;;;;;;;2.95;1.65;;;;;;;15.53;57.80;99983.13;1748040;82;27287;-70
2023/11/07 11:34:10;;;;;;;3.00;1.90;;;;;;;15.56;58.16;99979.70;1748222;82;25802;-72
2023/11/07 11:36:39;;;;;;;4.42;1.95;;;;;;;15.35;57.38;99978.58;1721752;82;25596;-69
2023/11/07 11:39:31;;;;;;;3.55;1.90;;;;;;;15.13;57.71;99977.99;1747921;82;25643;-70
2023/11/07 11:42:01;;;;;;;4.40;1.77;;;;;;;15.23;57.83;99977.49;1748074;82;25637;-70
2023/11/07 11:44:27;;;;;;;5.50;1.90;;;;;;;15.13;58.09;99978.77;1748025;82;27369;-70
2023/11/07 11:46:55;;;;;;;4.20;1.75;;;;;;;14.92;58.29;99972.75;1747940;82;25556;-70
2023/11/07 11:49:23;;;;;;;3.75;1.75;;;;;;;15.03;58.29;99981.21;1748025;82;25505;-71
2023/11/07 11:51:51;;;;;;;4.25;1.82;;;;;;;14.85;58.51;99988.31;1747962;82;25781;-70
2023/11/07 11:54:35;;;;;;;2.75;1.80;;;;;;;14.61;58.15;99978.83;1747977;82;25532;-70
2023/11/07 11:57:04;;;;;;;3.15;2.05;;;;;;;14.46;58.95;99989.27;1725016;82;27889;-71
2023/11/07 11:59:56;;;;;;;3.83;2.00;;;;;;;14.37;59.31;99981.81;1748102;82;25592;-71
2023/11/07 12:02:42;;;;;;;5.15;1.80;;;;;;;14.31;59.78;99979.88;1720702;83;25435;-71
2023/11/07 12:05:17;;;;;;;3.58;1.72;;;;;;;14.23;59.99;99987.58;1741495;82;26164;-71
2023/11/07 12:07:46;;;;;;;4.28;2.35;;;;;;;14.03;59.51;99991.20;1745652;82;25624;-70
2023/11/07 12:10:17;;;;;;;3.20;1.70;;;;;;;13.83;59.85;99989.62;1744221;82;27217;-70
2023/11/07 12:12:47;;;;;;;4.42;2.00;;;;;;;13.70;60.54;99982.00;1745651;82;25651;-72
2023/11/07 12:15:14;;;;;;;3.80;1.65;;;;;;;13.66;60.55;99981.67;1744537;81;25617;-71